Time;durP1;ratioP1;P1;durP2;ratioP2;P2;SDS_P1;SDS_P2;PMS_P1;PMS_P2;Temp;Humidity;BMP_temperature;BMP_pressure;BME280_temperature;BME280_humidity;BME280_pressure;Samples;Min_cycle;Max_cycle;Signal;HPM_P1;HPM_P2
2023/09/08 00:01:27;;;;;;;6.75;4.95;;;15.90;99.90;;;;;;5098147;28;20031;-72
2023/09/08 00:03:53;;;;;;;7.35;4.75;;;15.90;99.90;;;;;;5115779;28;20031;-72
2023/09/08 00:06:19;;;;;;;6.35;4.82;;;15.90;99.90;;;;;;5115772;28;20540;-72
2023/09/08 00:08:44;;;;;;;7.40;5.10;;;15.80;99.90;;;;;;5097645;28;20027;-72
2023/09/08 00:11:10;;;;;;;7.15;5.22;;;15.80;99.90;;;;;;5115508;28;20023;-72
2023/09/08 00:13:36;;;;;;;7.40;4.47;;;15.80;99.90;;;;;;5115819;28;20101;-72
2023/09/08 00:16:01;;;;;;;6.25;4.28;;;15.80;99.90;;;;;;5115605;28;20023;-72
2023/09/08 00:18:27;;;;;;;7.10;4.40;;;15.80;99.90;;;;;;5115472;28;20032;-72
2023/09/08 00:20:53;;;;;;;6.32;5.05;;;15.80;99.90;;;;;;5115596;28;20059;-72
2023/09/08 00:23:18;;;;;;;8.02;4.80;;;15.70;99.90;;;;;;5115348;28;20027;-73
2023/09/08 00:25:44;;;;;;;6.15;4.43;;;15.70;99.90;;;;;;5115287;28;20103;-72
2023/09/08 00:28:09;;;;;;;6.25;4.45;;;15.60;99.90;;;;;;5115230;28;20055;-72
2023/09/08 00:30:35;;;;;;;5.32;4.28;;;15.60;99.90;;;;;;5115094;28;20035;-72
2023/09/08 00:33:01;;;;;;;6.07;4.20;;;15.60;99.90;;;;;;5114359;28;20028;-72
2023/09/08 00:35:27;;;;;;;7.05;4.35;;;15.60;99.90;;;;;;5115463;28;20096;-72
2023/09/08 00:37:52;;;;;;;6.22;4.40;;;15.50;99.90;;;;;;5115404;28;20023;-72
2023/09/08 00:40:18;;;;;;;8.20;5.05;;;15.50;99.90;;;;;;5115001;28;20444;-72
2023/09/08 00:42:44;;;;;;;7.43;4.60;;;15.50;99.90;;;;;;5096735;28;20495;-72
2023/09/08 00:45:09;;;;;;;7.75;4.22;;;15.40;99.90;;;;;;5096803;28;20384;-72
2023/09/08 00:47:35;;;;;;;7.95;4.53;;;15.30;99.90;;;;;;5115152;28;20077;-72
2023/09/08 00:50:04;;;;;;;6.72;4.47;;;15.30;99.90;;;;;;5114789;28;20035;-72
2023/09/08 00:52:32;;;;;;;6.78;4.32;;;15.20;99.90;;;;;;5114710;28;20106;-72
2023/09/08 00:54:58;;;;;;;5.45;4.15;;;15.10;99.90;;;;;;5114791;28;20050;-72
2023/09/08 00:57:24;;;;;;;5.75;4.30;;;15.00;99.90;;;;;;5114715;28;20036;-72
2023/09/08 00:59:50;;;;;;;5.45;4.20;;;15.00;99.90;;;;;;5114653;28;20129;-72
2023/09/08 01:02:16;;;;;;;5.72;4.32;;;14.90;99.90;;;;;;5114593;28;20052;-72
2023/09/08 01:04:43;;;;;;;5.45;4.53;;;14.90;99.90;;;;;;5114972;28;20365;-72
2023/09/08 01:07:10;;;;;;;7.28;4.68;;;14.80;99.90;;;;;;5114817;28;20034;-72
2023/09/08 01:09:36;;;;;;;7.68;4.85;;;14.80;99.90;;;;;;5114614;28;20060;-72
2023/09/08 01:12:07;;;;;;;5.50;4.28;;;14.70;99.90;;;;;;5114635;28;20565;-72
2023/09/08 01:14:33;;;;;;;7.03;4.70;;;14.60;99.90;;;;;;5114608;28;20107;-72
2023/09/08 01:16:59;;;;;;;6.85;4.90;;;14.60;99.90;;;;;;5114592;28;20111;-72
2023/09/08 01:19:25;;;;;;;6.05;4.50;;;14.60;99.90;;;;;;5114523;28;20024;-72
2023/09/08 01:22:26;;;;;;;5.93;4.13;;;14.60;99.90;;;;;;5096006;28;20057;-72
2023/09/08 01:25:06;;;;;;;6.75;4.53;;;14.60;99.90;;;;;;4995545;28;20068;-72
2023/09/08 01:27:35;;;;;;;7.65;5.03;;;14.60;99.90;;;;;;5103611;28;20059;-72
2023/09/08 01:30:02;;;;;;;7.35;4.40;;;14.60;99.90;;;;;;5114256;28;20032;-72
2023/09/08 01:32:29;;;;;;;7.72;4.93;;;14.60;99.90;;;;;;5114166;28;20024;-72
2023/09/08 01:34:57;;;;;;;6.22;4.43;;;14.60;99.90;;;;;;5114465;28;20077;-72
2023/09/08 01:37:23;;;;;;;7.78;4.57;;;14.60;99.90;;;;;;5114471;28;20034;-72
2023/09/08 01:39:49;;;;;;;5.90;4.13;;;14.50;99.90;;;;;;5114430;28;20057;-72
2023/09/08 01:42:15;;;;;;;7.13;4.38;;;14.50;99.90;;;;;;5113933;28;20435;-72
2023/09/08 01:44:41;;;;;;;6.90;4.50;;;14.50;99.90;;;;;;5095840;28;20031;-72
2023/09/08 01:47:06;;;;;;;5.97;4.47;;;14.50;99.90;;;;;;5113972;28;20484;-72
2023/09/08 01:49:32;;;;;;;5.90;4.25;;;14.50;99.90;;;;;;5114661;28;20035;-72
2023/09/08 01:51:57;;;;;;;5.85;4.30;;;14.50;99.90;;;;;;5113869;28;20051;-72
2023/09/08 01:54:23;;;;;;;6.00;4.55;;;14.40;99.90;;;;;;5095479;28;20093;-72
2023/09/08 01:56:50;;;;;;;6.40;4.53;;;14.40;99.90;;;;;;5113817;28;20104;-72
2023/09/08 01:59:15;;;;;;;5.70;4.63;;;14.40;99.90;;;;;;5114090;28;20034;-72
2023/09/08 02:01:41;;;;;;;6.60;5.10;;;14.40;99.90;;;;;;5113693;28;20395;-72
2023/09/08 02:04:07;;;;;;;6.13;4.78;;;14.40;99.90;;;;;;5096210;28;20568;-72
2023/09/08 02:06:32;;;;;;;6.35;4.28;;;14.40;99.90;;;;;;5114535;28;20027;-72
2023/09/08 02:08:58;;;;;;;5.28;4.10;;;14.40;99.90;;;;;;5095817;28;20024;-72
2023/09/08 02:11:24;;;;;;;6.32;3.85;;;14.30;99.90;;;;;;5095515;28;20036;-72
2023/09/08 02:13:49;;;;;;;7.03;4.15;;;14.30;99.90;;;;;;5096359;28;20073;-72
2023/09/08 02:16:15;;;;;;;7.05;4.63;;;14.30;99.90;;;;;;5113979;28;20020;-72
2023/09/08 02:18:45;;;;;;;5.35;4.00;;;14.20;99.90;;;;;;5113603;28;20020;-72
2023/09/08 02:21:11;;;;;;;6.13;4.30;;;14.20;99.90;;;;;;5113630;28;20027;-72
2023/09/08 02:23:37;;;;;;;6.13;4.30;;;14.10;99.90;;;;;;5113573;28;20541;-72
2023/09/08 02:26:03;;;;;;;6.55;4.43;;;14.10;99.90;;;;;;5113494;28;20028;-72
2023/09/08 02:28:29;;;;;;;6.82;4.13;;;14.10;99.90;;;;;;5113512;28;20024;-72
2023/09/08 02:30:55;;;;;;;6.65;4.45;;;14.00;99.90;;;;;;5113638;28;20063;-72
2023/09/08 02:33:21;;;;;;;6.60;4.57;;;14.00;99.90;;;;;;5095502;28;20042;-72
2023/09/08 02:35:46;;;;;;;6.47;3.90;;;14.00;99.90;;;;;;5113526;28;20429;-72
2023/09/08 02:38:12;;;;;;;5.63;4.20;;;14.00;99.90;;;;;;5113492;28;20028;-72
2023/09/08 02:40:38;;;;;;;6.88;4.72;;;13.90;99.90;;;;;;5113409;28;20028;-72
2023/09/08 02:43:04;;;;;;;7.18;4.70;;;13.90;99.90;;;;;;5113417;28;20031;-72
2023/09/08 02:45:30;;;;;;;5.25;3.90;;;13.90;99.90;;;;;;5113729;28;20505;-72
2023/09/08 02:47:56;;;;;;;5.95;4.20;;;13.90;99.90;;;;;;5095164;28;20028;-72
2023/09/08 02:50:22;;;;;;;7.68;5.07;;;13.90;99.90;;;;;;5113166;28;20031;-72
2023/09/08 02:52:48;;;;;;;6.28;4.45;;;13.90;99.90;;;;;;5113387;28;20073;-72
2023/09/08 02:55:13;;;;;;;6.88;4.35;;;13.80;99.90;;;;;;5113926;28;20032;-72
2023/09/08 02:57:40;;;;;;;5.70;4.10;;;13.80;99.90;;;;;;5117342;28;20038;-72
2023/09/08 03:00:07;;;;;;;8.15;4.45;;;13.70;99.90;;;;;;5117054;28;20023;-72
2023/09/08 03:02:33;;;;;;;6.93;3.97;;;13.70;99.90;;;;;;5117202;28;20035;-72
2023/09/08 03:04:58;;;;;;;7.70;4.65;;;13.70;99.90;;;;;;5116983;28;20031;-72
2023/09/08 03:07:24;;;;;;;5.90;4.07;;;13.70;99.90;;;;;;5116902;28;20418;-72
2023/09/08 03:09:50;;;;;;;7.63;4.32;;;13.60;99.90;;;;;;5098848;28;20536;-72
2023/09/08 03:12:15;;;;;;;5.90;3.85;;;13.60;99.90;;;;;;5117038;28;20035;-72
2023/09/08 03:14:41;;;;;;;6.75;4.60;;;13.60;99.90;;;;;;5116771;28;20027;-72
2023/09/08 03:17:07;;;;;;;5.25;3.80;;;13.50;99.90;;;;;;5081713;28;20118;-72
2023/09/08 03:19:33;;;;;;;7.07;4.07;;;13.50;99.90;;;;;;5116683;28;20027;-72
2023/09/08 03:21:59;;;;;;;6.10;4.32;;;13.50;99.90;;;;;;5116579;28;20019;-72
2023/09/08 03:24:24;;;;;;;7.32;4.32;;;13.50;99.90;;;;;;5116823;28;20476;-72
2023/09/08 03:26:50;;;;;;;5.82;3.97;;;13.40;99.90;;;;;;5098526;28;20032;-72
2023/09/08 03:29:15;;;;;;;5.13;3.83;;;13.40;99.90;;;;;;5116474;28;20032;-72
2023/09/08 03:31:41;;;;;;;6.65;4.28;;;13.40;99.90;;;;;;5098741;28;20364;-72
2023/09/08 03:34:07;;;;;;;6.65;4.68;;;13.40;99.90;;;;;;5116427;28;20492;-72
2023/09/08 03:36:35;;;;;;;7.78;4.53;;;13.40;99.90;;;;;;5116400;28;20019;-72
2023/09/08 03:39:02;;;;;;;5.15;4.13;;;13.40;99.90;;;;;;5116191;28;20520;-72
2023/09/08 03:41:27;;;;;;;6.90;4.57;;;13.30;99.90;;;;;;5097772;28;20118;-72
2023/09/08 03:43:53;;;;;;;7.35;3.95;;;13.30;99.90;;;;;;5116046;28;20059;-72
2023/09/08 03:46:19;;;;;;;5.72;4.20;;;13.20;99.90;;;;;;5116058;28;20476;-72
2023/09/08 03:48:44;;;;;;;6.30;4.20;;;13.20;99.90;;;;;;5116125;28;20484;-72
2023/09/08 03:51:10;;;;;;;5.53;3.85;;;13.20;99.90;;;;;;5097610;28;20101;-72
2023/09/08 03:53:36;;;;;;;6.55;4.15;;;13.20;99.90;;;;;;5097686;28;20051;-72
2023/09/08 03:56:01;;;;;;;6.88;4.38;;;13.10;99.90;;;;;;5115881;28;20030;-72
2023/09/08 03:58:27;;;;;;;6.85;4.10;;;13.10;99.90;;;;;;5115814;28;20077;-72
2023/09/08 04:00:53;;;;;;;7.47;4.07;;;13.10;99.90;;;;;;5097561;28;20063;-72
2023/09/08 04:03:18;;;;;;;7.03;4.05;;;13.10;99.90;;;;;;5115784;28;20023;-72
2023/09/08 04:05:44;;;;;;;6.70;3.95;;;13.10;99.90;;;;;;5115716;28;20050;-72
2023/09/08 04:08:09;;;;;;;5.22;4.18;;;13.10;99.90;;;;;;5097448;28;20024;-72
2023/09/08 04:10:35;;;;;;;6.85;4.20;;;13.10;99.90;;;;;;5097248;28;20032;-72
2023/09/08 04:13:01;;;;;;;5.57;4.03;;;13.10;99.90;;;;;;5115679;28;20023;-72
2023/09/08 04:15:26;;;;;;;6.00;4.20;;;13.10;99.90;;;;;;5115756;28;20024;-72
2023/09/08 04:17:52;;;;;;;4.80;3.88;;;13.00;99.90;;;;;;5097372;28;20019;-72
2023/09/08 04:20:18;;;;;;;4.75;3.63;;;13.00;99.90;;;;;;5115524;28;20027;-72
2023/09/08 04:22:44;;;;;;;6.28;3.95;;;13.00;99.90;;;;;;5097097;28;20039;-72
2023/09/08 04:25:11;;;;;;;6.40;4.22;;;12.90;99.90;;;;;;5115835;28;20055;-72
2023/09/08 04:27:37;;;;;;;6.97;4.43;;;12.90;99.90;;;;;;5115332;28;20028;-72
2023/09/08 04:30:04;;;;;;;6.25;4.50;;;12.90;99.90;;;;;;5115116;28;20028;-72
2023/09/08 04:32:30;;;;;;;5.53;4.10;;;12.90;99.90;;;;;;5097131;28;20028;-72
2023/09/08 04:34:56;;;;;;;6.65;4.00;;;12.80;99.90;;;;;;5115268;28;20081;-72
2023/09/08 04:37:21;;;;;;;5.43;4.03;;;12.80;99.90;;;;;;5114999;28;20047;-72
2023/09/08 04:39:47;;;;;;;7.45;4.53;;;12.80;99.90;;;;;;5096789;28;20028;-72
2023/09/08 04:42:13;;;;;;;6.82;3.80;;;12.80;99.90;;;;;;5114872;28;20098;-72
2023/09/08 04:44:38;;;;;;;7.57;4.97;;;12.70;99.90;;;;;;5115359;28;20047;-72
2023/09/08 04:47:04;;;;;;;9.43;5.10;;;12.60;99.90;;;;;;5114896;28;20028;-72
2023/09/08 04:49:30;;;;;;;7.25;4.55;;;12.50;99.90;;;;;;5114763;28;20523;-72
2023/09/08 04:51:57;;;;;;;6.00;4.10;;;12.30;99.90;;;;;;5114776;28;20035;-72
2023/09/08 04:54:26;;;;;;;7.60;4.70;;;12.20;99.90;;;;;;5114561;28;20028;-72
2023/09/08 04:56:52;;;;;;;9.10;4.63;;;12.10;99.90;;;;;;5096440;28;20032;-72
2023/09/08 04:59:18;;;;;;;6.63;4.30;;;12.20;99.90;;;;;;5114571;28;20392;-72
2023/09/08 05:01:43;;;;;;;7.47;4.75;;;12.20;99.90;;;;;;5114517;28;20068;-73
2023/09/08 05:04:10;;;;;;;6.75;4.10;;;12.20;99.90;;;;;;5114597;28;20023;-72
2023/09/08 05:06:36;;;;;;;7.65;4.13;;;12.30;99.90;;;;;;5096635;28;20028;-72
2023/09/08 05:09:02;;;;;;;10.60;4.32;;;12.30;99.90;;;;;;5096387;28;20049;-73
2023/09/08 05:11:27;;;;;;;6.43;4.28;;;12.30;99.90;;;;;;5114465;28;20053;-72
2023/09/08 05:13:53;;;;;;;5.80;4.03;;;12.40;99.90;;;;;;5114474;28;20023;-72
2023/09/08 05:16:25;;;;;;;5.78;4.28;;;12.30;99.90;;;;;;5096219;28;20088;-72
2023/09/08 05:18:51;;;;;;;7.80;4.40;;;12.40;99.90;;;;;;5114202;28;20035;-72
2023/09/08 05:21:17;;;;;;;5.53;3.90;;;12.30;99.90;;;;;;5114180;28;20039;-72
2023/09/08 05:23:43;;;;;;;7.25;4.45;;;12.40;99.90;;;;;;5114295;28;20102;-72
2023/09/08 05:26:08;;;;;;;7.03;4.28;;;12.40;99.90;;;;;;5114296;28;20119;-72
2023/09/08 05:28:34;;;;;;;5.55;3.75;;;12.40;99.90;;;;;;5096062;28;20064;-72
2023/09/08 05:31:00;;;;;;;6.18;4.25;;;12.40;99.90;;;;;;5114037;28;20032;-72
2023/09/08 05:33:25;;;;;;;11.13;4.97;;;12.40;99.90;;;;;;5114195;28;20369;-72
2023/09/08 05:35:51;;;;;;;6.38;4.38;;;12.40;99.90;;;;;;5114053;28;20492;-72
2023/09/08 05:38:17;;;;;;;8.52;4.43;;;12.40;99.90;;;;;;5114010;28;20023;-72
2023/09/08 05:40:43;;;;;;;6.68;4.50;;;12.50;99.90;;;;;;5094641;28;20031;-72
2023/09/08 05:43:08;;;;;;;9.30;4.65;;;12.50;99.90;;;;;;5095663;28;20040;-72
2023/09/08 05:45:34;;;;;;;7.05;4.80;;;12.50;99.90;;;;;;5114021;28;20054;-72
2023/09/08 05:48:00;;;;;;;10.38;5.32;;;12.60;99.90;;;;;;5113501;28;20027;-73
2023/09/08 05:50:26;;;;;;;10.73;6.88;;;12.60;99.90;;;;;;5113008;28;20568;-72
2023/09/08 05:52:52;;;;;;;12.90;6.75;;;12.70;99.90;;;;;;5113873;28;20051;-73
2023/09/08 05:55:18;;;;;;;9.82;6.53;;;12.70;99.90;;;;;;5095674;28;20139;-72
2023/09/08 05:57:43;;;;;;;9.55;6.43;;;12.70;99.90;;;;;;5095619;28;20027;-72
2023/09/08 06:00:10;;;;;;;9.70;6.22;;;12.80;99.90;;;;;;5113842;28;20024;-72
2023/09/08 06:02:36;;;;;;;11.07;6.90;;;12.80;99.90;;;;;;5114217;28;20059;-72
2023/09/08 06:05:01;;;;;;;9.82;6.05;;;12.90;99.90;;;;;;5095671;28;20055;-73
2023/09/08 06:07:28;;;;;;;9.40;5.65;;;12.90;99.90;;;;;;5114060;28;20442;-73
2023/09/08 06:09:53;;;;;;;8.95;6.03;;;13.00;99.90;;;;;;5114041;28;20497;-73
2023/09/08 06:12:19;;;;;;;9.00;5.72;;;13.00;99.90;;;;;;5095484;28;20111;-73
2023/09/08 06:14:44;;;;;;;7.07;4.90;;;13.10;99.90;;;;;;5096015;28;20031;-73
2023/09/08 06:17:10;;;;;;;7.82;5.35;;;13.10;99.90;;;;;;5095627;28;20028;-73
2023/09/08 06:19:36;;;;;;;6.97;5.22;;;13.10;99.90;;;;;;5095470;28;20114;-73
2023/09/08 06:22:01;;;;;;;8.00;5.40;;;13.20;99.90;;;;;;5113631;28;20474;-73
2023/09/08 06:24:27;;;;;;;7.43;5.47;;;13.30;99.90;;;;;;5078702;28;20556;-73
2023/09/08 06:26:53;;;;;;;8.25;5.47;;;13.30;99.90;;;;;;5095777;28;20020;-73
2023/09/08 06:29:19;;;;;;;11.73;5.60;;;13.40;99.90;;;;;;5095429;28;20051;-73
2023/09/08 06:31:44;;;;;;;13.20;7.45;;;13.40;99.90;;;;;;5116804;28;20024;-73
2023/09/08 06:34:10;;;;;;;11.63;7.22;;;13.50;99.90;;;;;;5118474;28;20023;-73
2023/09/08 06:36:36;;;;;;;9.85;6.50;;;13.60;99.90;;;;;;5118018;28;20148;-73
2023/09/08 06:39:02;;;;;;;15.98;7.00;;;13.60;99.90;;;;;;5099631;28;20030;-73
2023/09/08 06:41:28;;;;;;;9.10;6.18;;;13.70;99.90;;;;;;5117395;28;20031;-73
2023/09/08 06:43:54;;;;;;;8.57;6.03;;;13.80;99.90;;;;;;5117698;28;20472;-73
2023/09/08 06:46:19;;;;;;;10.48;6.00;;;13.80;99.90;;;;;;5117764;28;20026;-73
2023/09/08 06:48:45;;;;;;;9.63;5.47;;;13.90;99.90;;;;;;5117296;28;20035;-72
2023/09/08 06:51:11;;;;;;;7.90;5.65;;;13.90;99.90;;;;;;5082457;28;20032;-72
2023/09/08 06:53:37;;;;;;;8.35;5.75;;;14.00;99.90;;;;;;5117227;28;20028;-73
2023/09/08 06:56:03;;;;;;;10.77;6.50;;;14.10;99.90;;;;;;5117434;28;20510;-73
2023/09/08 06:58:28;;;;;;;9.75;6.70;;;14.20;99.90;;;;;;5117448;28;20110;-72
2023/09/08 07:00:54;;;;;;;9.00;6.43;;;14.30;99.90;;;;;;5117383;28;20027;-72
2023/09/08 07:03:24;;;;;;;9.38;6.32;;;14.40;99.90;;;;;;5099279;28;20027;-72
2023/09/08 07:05:50;;;;;;;9.65;7.05;;;14.50;99.90;;;;;;5117055;28;20024;-72
2023/09/08 07:08:17;;;;;;;8.63;6.45;;;14.50;99.90;;;;;;5117153;28;20055;-72
2023/09/08 07:10:43;;;;;;;10.32;7.18;;;14.60;99.90;;;;;;5117031;28;20046;-72
2023/09/08 07:13:09;;;;;;;11.43;7.45;;;14.70;99.90;;;;;;5117270;28;20499;-73
2023/09/08 07:15:35;;;;;;;11.10;7.32;;;14.80;99.90;;;;;;5099112;28;20028;-72
2023/09/08 07:18:00;;;;;;;11.25;7.50;;;14.90;99.90;;;;;;5098929;28;20046;-73
2023/09/08 07:20:26;;;;;;;12.77;7.45;;;15.00;99.90;;;;;;5084489;28;20038;-74
2023/09/08 07:22:52;;;;;;;11.23;6.68;;;15.10;99.90;;;;;;5120137;28;20087;-75
2023/09/08 07:25:17;;;;;;;12.18;7.57;;;15.20;99.90;;;;;;5119544;28;20019;-74
2023/09/08 07:27:43;;;;;;;10.25;7.25;;;15.30;99.90;;;;;;5101227;28;20044;-74
2023/09/08 07:30:09;;;;;;;11.10;7.57;;;15.30;99.90;;;;;;5099197;28;20032;-74
2023/09/08 07:32:35;;;;;;;11.25;6.45;;;15.40;99.90;;;;;;5117024;28;20027;-75
2023/09/08 07:35:00;;;;;;;10.88;6.18;;;15.50;99.90;;;;;;5117322;28;20027;-74
2023/09/08 07:37:26;;;;;;;10.73;6.65;;;15.60;99.90;;;;;;5118134;28;20024;-74
2023/09/08 07:39:52;;;;;;;10.65;7.03;;;15.70;99.90;;;;;;5099027;28;20058;-74
2023/09/08 07:42:18;;;;;;;12.40;6.78;;;15.70;99.90;;;;;;5097689;28;20035;-74
2023/09/08 07:44:44;;;;;;;9.32;6.45;;;15.80;99.90;;;;;;5117950;27;20027;-75
2023/09/08 07:47:10;;;;;;;8.75;6.63;;;16.00;99.90;;;;;;5099482;28;20085;-73
2023/09/08 07:49:36;;;;;;;10.13;6.80;;;16.00;99.90;;;;;;5116640;28;20036;-73
2023/09/08 07:52:04;;;;;;;8.90;6.97;;;16.10;99.90;;;;;;5117695;28;20016;-73
2023/09/08 07:54:30;;;;;;;9.00;6.72;;;16.30;99.90;;;;;;5117349;28;20492;-73
2023/09/08 07:56:56;;;;;;;13.45;7.40;;;16.40;99.90;;;;;;5117024;28;20028;-73
2023/09/08 07:59:21;;;;;;;9.32;6.50;;;16.50;99.90;;;;;;5081953;28;20072;-73
2023/09/08 08:01:47;;;;;;;11.00;7.40;;;16.70;99.90;;;;;;5116838;28;20055;-73
2023/09/08 08:04:13;;;;;;;9.88;6.65;;;16.80;99.90;;;;;;5116080;28;20055;-73
2023/09/08 08:06:38;;;;;;;8.75;6.47;;;16.90;99.90;;;;;;5098241;28;20032;-73
2023/09/08 08:09:04;;;;;;;10.23;6.68;;;17.00;99.90;;;;;;5101561;28;20031;-73
2023/09/08 08:11:30;;;;;;;13.23;7.68;;;17.10;99.90;;;;;;5119229;28;20384;-73
2023/09/08 08:13:56;;;;;;;9.38;7.03;;;17.20;99.90;;;;;;5100151;28;20044;-73
2023/09/08 08:16:23;;;;;;;10.90;7.25;;;17.40;99.90;;;;;;5102966;28;20031;-73
2023/09/08 08:18:49;;;;;;;8.32;6.30;;;17.60;99.90;;;;;;5101790;28;20041;-73
2023/09/08 08:21:15;;;;;;;8.68;6.53;;;17.70;99.90;;;;;;5101159;28;20077;-73
2023/09/08 08:23:40;;;;;;;12.52;7.10;;;17.80;99.90;;;;;;5117836;28;20027;-73
2023/09/08 08:26:06;;;;;;;12.35;7.72;;;18.00;99.90;;;;;;5117196;28;20057;-73
2023/09/08 08:28:32;;;;;;;9.18;7.15;;;18.20;99.90;;;;;;5083756;28;20023;-74
2023/09/08 08:30:58;;;;;;;9.30;6.72;;;18.40;99.90;;;;;;5099628;28;20034;-74
2023/09/08 08:33:25;;;;;;;8.88;6.80;;;18.50;99.90;;;;;;5101623;28;20153;-73
2023/09/08 08:35:52;;;;;;;12.00;7.20;;;18.70;99.90;;;;;;5101236;28;20092;-73
2023/09/08 08:38:19;;;;;;;9.90;6.95;;;18.80;99.90;;;;;;5099488;28;20076;-74
2023/09/08 08:40:56;;;;;;;9.52;6.32;;;19.00;99.90;;;;;;5103398;28;20038;-73
2023/09/08 08:43:30;;;;;;;9.93;6.47;;;19.10;99.90;;;;;;5103551;28;20031;-74
2023/09/08 08:46:03;;;;;;;9.48;6.32;;;19.20;99.90;;;;;;5119902;28;20039;-74
2023/09/08 08:48:34;;;;;;;9.95;5.95;;;19.30;99.90;;;;;;5122256;28;20031;-74
2023/09/08 08:51:05;;;;;;;12.40;6.07;;;19.40;99.90;;;;;;5102756;28;20088;-73
2023/09/08 08:53:33;;;;;;;9.07;6.35;;;19.60;99.90;;;;;;5101842;28;20066;-74
2023/09/08 08:56:00;;;;;;;7.78;5.97;;;19.70;99.90;;;;;;5102417;28;20122;-75
2023/09/08 08:58:28;;;;;;;8.90;5.95;;;19.90;99.90;;;;;;5121235;28;20024;-74
2023/09/08 09:01:01;;;;;;;9.20;6.03;;;20.00;99.90;;;;;;5102437;28;20024;-74
2023/09/08 09:03:31;;;;;;;8.75;5.70;;;20.20;99.90;;;;;;5116419;28;20115;-74
2023/09/08 09:05:57;;;;;;;7.78;5.15;;;20.30;99.90;;;;;;5101421;28;20042;-74
2023/09/08 09:08:24;;;;;;;7.90;5.97;;;20.50;99.90;;;;;;5119301;28;20038;-74
2023/09/08 09:10:52;;;;;;;8.10;6.03;;;20.70;99.90;;;;;;5080566;28;20100;-74
2023/09/08 09:13:20;;;;;;;7.40;5.63;;;20.80;99.90;;;;;;5082969;28;20392;-74
2023/09/08 09:16:10;;;;;;;8.75;5.60;;;21.00;99.90;;;;;;5067030;28;20036;-74
2023/09/08 09:19:27;;;;;;;8.02;5.75;;;21.10;99.90;;;;;;5082214;28;20070;-75
2023/09/08 09:22:11;;;;;;;12.07;5.80;;;21.20;99.90;;;;;;5083506;28;20020;-75
2023/09/08 09:24:58;;;;;;;8.65;5.90;;;21.40;99.90;;;;;;5088261;28;20016;-74
2023/09/08 09:27:28;;;;;;;7.90;5.47;;;21.50;99.90;;;;;;5082556;28;20482;-74
2023/09/08 09:30:27;;;;;;;7.75;5.30;;;21.70;99.90;;;;;;5102133;28;20411;-74
2023/09/08 09:33:26;;;;;;;7.70;5.28;;;21.90;99.90;;;;;;5101270;28;20028;-74
2023/09/08 09:36:22;;;;;;;6.53;5.30;;;22.00;99.90;;;;;;5083230;28;20016;-74
2023/09/08 09:38:48;;;;;;;9.48;5.30;;;22.10;99.90;;;;;;5109736;28;20080;-74
2023/09/08 09:41:13;;;;;;;7.18;4.93;;;22.20;99.90;;;;;;5098320;28;20496;-74
2023/09/08 09:43:40;;;;;;;6.88;4.68;;;22.40;99.90;;;;;;5117453;28;20027;-74
2023/09/08 09:46:08;;;;;;;7.07;5.25;;;22.40;99.90;;;;;;5117109;28;20107;-75
2023/09/08 09:48:35;;;;;;;7.25;5.28;;;22.60;99.90;;;;;;5118749;28;20023;-75
2023/09/08 09:51:16;;;;;;;6.85;5.07;;;22.70;99.90;;;;;;5115984;28;20028;-74
2023/09/08 09:53:42;;;;;;;7.20;5.30;;;22.80;99.90;;;;;;5100896;28;20035;-75
2023/09/08 09:56:09;;;;;;;8.10;5.10;;;23.00;99.90;;;;;;5077961;28;20111;-74
2023/09/08 09:58:36;;;;;;;8.82;5.32;;;23.20;99.90;;;;;;5095249;28;20112;-74
2023/09/08 10:01:03;;;;;;;7.85;5.25;;;23.30;99.40;;;;;;5076957;28;20024;-74
2023/09/08 10:03:30;;;;;;;7.63;4.90;;;23.50;99.80;;;;;;5095753;28;20035;-74
2023/09/08 10:05:56;;;;;;;7.55;5.30;;;23.60;99.70;;;;;;5099322;28;20024;-75
2023/09/08 10:08:23;;;;;;;7.75;5.38;;;23.70;99.60;;;;;;5102624;28;20061;-74
2023/09/08 10:10:50;;;;;;;6.55;5.25;;;23.80;99.00;;;;;;5066882;28;20434;-76
2023/09/08 10:13:31;;;;;;;6.82;5.28;;;24.00;98.80;;;;;;5102390;28;20059;-75
2023/09/08 10:15:58;;;;;;;;;;;24.10;97.90;;;;;;5118971;28;20141;-75
2023/09/08 10:18:24;;;;;;;6.80;4.75;;;24.20;97.30;;;;;;5121735;28;19908;-75
2023/09/08 10:20:53;;;;;;;5.68;4.53;;;24.30;96.80;;;;;;5081718;28;20560;-74
2023/09/08 10:23:42;;;;;;;7.07;4.90;;;24.40;96.80;;;;;;5100922;28;20031;-75
2023/09/08 10:26:12;;;;;;;6.30;4.60;;;24.50;96.00;;;;;;5119017;28;20106;-74
2023/09/08 10:28:38;;;;;;;5.97;4.63;;;24.60;95.70;;;;;;5081050;28;20039;-75
2023/09/08 10:31:06;;;;;;;7.38;4.88;;;24.70;95.20;;;;;;5102917;28;20026;-74
2023/09/08 10:33:34;;;;;;;6.20;4.90;;;24.70;94.10;;;;;;5103228;28;20034;-74
2023/09/08 10:36:03;;;;;;;7.30;5.15;;;24.90;95.10;;;;;;5083539;28;20019;-74
2023/09/08 10:38:32;;;;;;;7.68;5.15;;;24.90;95.20;;;;;;5119789;28;20019;-75
2023/09/08 10:41:35;;;;;;;6.05;5.03;;;25.00;94.80;;;;;;5103667;28;20030;-74
2023/09/08 10:48:13;;;;;;;5.72;4.72;;;25.20;94.40;;;;;;5119174;28;20490;-74
2023/09/08 10:55:01;;;;;;;8.25;5.43;;;25.60;93.60;;;;;;5033124;28;20485;-75
2023/09/08 10:57:33;;;;;;;8.40;5.47;;;25.60;93.80;;;;;;5035534;28;20134;-75
2023/09/08 11:00:11;;;;;;;8.27;5.40;;;25.60;93.30;;;;;;5097569;28;20046;-75
2023/09/08 11:02:51;;;;;;;5.85;4.40;;;25.80;92.50;;;;;;5112597;27;20054;-74
2023/09/08 11:05:19;;;;;;;7.05;5.10;;;25.80;93.30;;;;;;5068272;28;20088;-74
2023/09/08 11:08:04;;;;;;;6.53;4.93;;;25.90;92.00;;;;;;5127625;27;20050;-75
2023/09/08 11:10:50;;;;;;;6.78;4.72;;;26.00;93.10;;;;;;5129418;27;20048;-75
2023/09/08 11:13:23;;;;;;;6.40;4.88;;;26.20;93.30;;;;;;5138080;27;20027;-75
2023/09/08 11:15:53;;;;;;;6.90;4.90;;;26.30;92.50;;;;;;5137132;27;20027;-75
2023/09/08 11:18:26;;;;;;;7.90;5.05;;;26.40;91.50;;;;;;5121055;27;20019;-75
2023/09/08 11:20:52;;;;;;;5.03;4.35;;;26.40;91.70;;;;;;5140306;27;20027;-75
2023/09/08 11:23:18;;;;;;;5.72;5.05;;;26.50;92.00;;;;;;5119073;27;20110;-75
2023/09/08 11:25:44;;;;;;;5.72;4.97;;;26.60;91.70;;;;;;5137538;27;20104;-75
2023/09/08 11:28:11;;;;;;;7.13;4.60;;;26.70;91.40;;;;;;5137310;27;20088;-75
2023/09/08 11:30:37;;;;;;;6.10;4.68;;;26.80;91.30;;;;;;5119172;27;20471;-75
2023/09/08 11:33:02;;;;;;;6.40;4.57;;;26.90;91.70;;;;;;5118967;27;20049;-75
2023/09/08 11:35:28;;;;;;;7.25;4.82;;;27.00;92.40;;;;;;5137631;27;20023;-75
2023/09/08 11:37:59;;;;;;;6.53;4.85;;;27.10;93.80;;;;;;5118591;27;20027;-75
2023/09/08 11:40:25;;;;;;;6.35;5.28;;;27.20;93.10;;;;;;5118508;27;20027;-75
2023/09/08 11:42:53;;;;;;;6.40;4.90;;;27.30;92.40;;;;;;5118564;27;20057;-75
2023/09/08 11:45:22;;;;;;;7.43;5.35;;;27.40;92.80;;;;;;5137011;27;20031;-75
2023/09/08 11:47:52;;;;;;;6.38;5.13;;;27.40;92.90;;;;;;5137119;27;20023;-75
2023/09/08 11:50:18;;;;;;;6.20;4.97;;;27.50;93.20;;;;;;5118185;27;20027;-75
2023/09/08 11:52:46;;;;;;;5.75;4.85;;;27.60;93.10;;;;;;5137686;27;20034;-76
2023/09/08 11:55:13;;;;;;;6.95;4.88;;;27.70;92.40;;;;;;5137074;27;20042;-75
2023/09/08 11:57:40;;;;;;;6.18;5.45;;;27.80;94.30;;;;;;5134567;27;20083;-74
2023/09/08 12:00:09;;;;;;;8.57;5.30;;;27.80;94.20;;;;;;5115288;28;20031;-75
2023/09/08 12:02:38;;;;;;;7.28;5.13;;;28.00;94.20;;;;;;5115754;28;20023;-74
2023/09/08 12:05:04;;;;;;;7.72;4.90;;;28.10;94.40;;;;;;5097422;28;20084;-75
2023/09/08 12:07:30;;;;;;;6.38;5.18;;;28.30;94.10;;;;;;5115786;28;20031;-75
2023/09/08 12:09:58;;;;;;;6.28;4.88;;;28.40;93.30;;;;;;5117286;27;20061;-75
2023/09/08 12:12:25;;;;;;;7.50;4.63;;;28.50;93.20;;;;;;5114984;28;20036;-75
2023/09/08 12:14:51;;;;;;;6.22;5.28;;;28.60;93.40;;;;;;5114810;28;20031;-74
2023/09/08 12:17:18;;;;;;;5.55;4.72;;;28.60;93.30;;;;;;5114591;28;20039;-74
2023/09/08 12:19:43;;;;;;;5.75;4.70;;;28.80;92.90;;;;;;5096285;28;20027;-75
2023/09/08 12:22:11;;;;;;;4.82;4.13;;;28.90;91.80;;;;;;5096249;28;20121;-74
2023/09/08 12:24:56;;;;;;;5.70;4.20;;;29.00;90.10;;;;;;5114956;28;20110;-75
2023/09/08 12:27:22;;;;;;;;;;;29.20;85.30;;;;;;5115731;28;20479;-75
2023/09/08 12:29:52;;;;;;;;;;;29.10;89.40;;;;;;5115600;28;19917;-75
2023/09/08 12:32:17;;;;;;;;;;;29.30;90.80;;;;;;5097139;28;19920;-74
2023/09/08 12:34:43;;;;;;;;;;;29.40;86.50;;;;;;5116311;28;20355;-77
2023/09/08 12:37:11;;;;;;;;;;;29.40;89.30;;;;;;5118358;28;19976;-75
2023/09/08 12:39:38;;;;;;;;;;;29.50;89.10;;;;;;5115491;28;19934;-72
2023/09/08 12:42:04;;;;;;;;;;;29.60;90.10;;;;;;5115248;28;20291;-73
2023/09/08 12:44:29;;;;;;;;;;;29.60;88.90;;;;;;5114802;28;19912;-71
2023/09/08 12:46:55;;;;;;;;;;;29.60;89.80;;;;;;5115934;28;19951;-72
2023/09/08 12:49:20;;;;;;;;;;;29.60;88.60;;;;;;5115263;28;19943;-72
2023/09/08 12:51:46;;;;;;;;;;;29.60;88.20;;;;;;5114656;28;20002;-72
2023/09/08 12:54:11;;;;;;;;;;;29.50;88.70;;;;;;5115330;28;19915;-72
2023/09/08 12:56:37;;;;;;;;;;;29.40;88.40;;;;;;5115120;28;19923;-72
2023/09/08 12:59:02;;;;;;;;;;;29.40;88.10;;;;;;5115195;28;19941;-72
2023/09/08 13:01:28;;;;;;;;;;;29.40;90.00;;;;;;5114605;28;19912;-72